Time;durP1;ratioP1;P1;durP2;ratioP2;P2;SDS_P1;SDS_P2;PMS_P1;PMS_P2;Temp;Humidity;BMP_temperature;BMP_pressure;BME280_temperature;BME280_humidity;BME280_pressure;Samples;Min_cycle;Max_cycle;Signal;HPM_P1;HPM_P2
2022/12/13 00:07:26;;;;;;;42.97;18.50;;;;;;;;;;21067618;28;20566;-69
2022/12/13 00:17:30;;;;;;;43.37;20.13;;;0.00;91.20;;;;;;21066679;28;20211;-73
2022/12/13 00:31:08;;;;;;;38.53;18.47;;;;;;;;;;21067925;28;20568;-71
2022/12/13 00:41:32;;;;;;;41.90;19.30;;;-2.70;90.00;;;;;;21068022;28;20318;-71
2022/12/13 00:51:35;;;;;;;52.20;21.57;;;;;;;;;;21066047;28;20206;-71
2022/12/13 01:01:37;;;;;;;38.47;18.23;;;;;;;;;;21065118;28;20279;-69
2022/12/13 01:11:39;;;;;;;42.37;18.83;;;;;;;;;;21064657;28;20211;-70
2022/12/13 01:21:41;;;;;;;41.43;17.90;;;;;;;;;;21063469;28;20731;-71
2022/12/13 01:31:43;;;;;;;44.73;19.07;;;;;;;;;;21062898;28;20566;-71
2022/12/13 01:41:46;;;;;;;37.57;18.20;;;;;;;;;;21010641;28;20227;-71
2022/12/13 01:51:54;;;;;;;44.63;19.47;;;-2.50;89.90;;;;;;21005430;28;20667;-71
2022/12/13 02:01:56;;;;;;;37.27;16.53;;;;;;;;;;21004750;28;20249;-70
2022/12/13 02:12:02;;;;;;;35.37;15.10;;;;;;;;;;21004317;28;20555;-70
2022/12/13 02:22:29;;;;;;;37.23;16.63;;;-2.60;89.00;;;;;;21002933;28;20228;-70
2022/12/13 02:32:54;;;;;;;40.53;16.63;;;-2.40;89.50;;;;;;21002463;28;20218;-70
2022/12/13 02:42:56;;;;;;;39.00;16.90;;;;;;;;;;20990700;28;20238;-71
2022/12/13 02:52:59;;;;;;;42.47;18.20;;;-2.80;89.30;;;;;;20999850;28;20211;-70
2022/12/13 03:03:11;;;;;;;47.40;17.93;;;-2.80;88.90;;;;;;20999678;28;20235;-71
2022/12/13 03:13:35;;;;;;;38.53;15.77;;;-2.90;89.20;;;;;;20999461;28;20203;-71
2022/12/13 03:23:37;;;;;;;39.70;17.87;;;;;;;;;;20998060;28;20239;-71
2022/12/13 03:33:39;;;;;;;39.33;16.83;;;;;;;;;;20997515;28;20218;-72
2022/12/13 03:43:41;;;;;;;35.90;14.97;;;;;;;;;;20997013;28;20271;-69
2022/12/13 03:53:44;;;;;;;40.30;17.90;;;;;;;;;;20996434;28;20594;-71
2022/12/13 04:03:46;;;;;;;39.97;17.13;;;;;;;;;;20995392;28;20728;-73
2022/12/13 04:13:48;;;;;;;39.80;17.93;;;;;;;;;;20995689;28;20578;-72
2022/12/13 04:23:50;;;;;;;47.40;18.37;;;;;;;;;;20994522;28;20277;-71
2022/12/13 04:33:52;;;;;;;48.57;18.30;;;;;;;;;;20994577;28;20204;-71
2022/12/13 04:43:54;;;;;;;41.30;18.17;;;;;;;;;;20994244;28;20694;-69
2022/12/13 04:53:57;;;;;;;37.20;16.47;;;;;;;;;;20993632;28;20286;-70
2022/12/13 05:04:19;;;;;;;43.23;17.37;;;;;;;;;;20994013;28;20326;-70
2022/12/13 05:14:21;;;;;;;40.67;17.43;;;;;;;;;;21003688;28;20207;-67
2022/12/13 05:24:24;;;;;;;41.47;16.33;;;;;;;;;;21007637;28;20247;-70
2022/12/13 05:34:26;;;;;;;32.77;15.37;;;;;;;;;;21006607;28;20237;-68
2022/12/13 05:44:32;;;;;;;37.83;15.03;;;-3.50;89.40;;;;;;21006310;28;20227;-69
2022/12/13 05:54:34;;;;;;;37.13;15.30;;;;;;;;;;21004434;28;20211;-69
2022/12/13 06:04:37;;;;;;;36.83;15.60;;;;;;;;;;21002467;28;20231;-68
2022/12/13 06:14:39;;;;;;;45.43;18.87;;;;;;;;;;21004189;28;20234;-69
2022/12/13 06:24:41;;;;;;;43.33;17.83;;;;;;;;;;21002192;28;20250;-69
2022/12/13 06:34:43;;;;;;;44.20;17.63;;;;;;;;;;21001806;28;20211;-69
2022/12/13 06:44:45;;;;;;;41.70;17.30;;;;;;;;;;21001552;28;20235;-67
2022/12/13 06:54:47;;;;;;;53.83;20.40;;;;;;;;;;20997796;28;20207;-69
2022/12/13 07:04:49;;;;;;;42.13;17.70;;;;;;;;;;20997694;28;20227;-69
2022/12/13 07:14:52;;;;;;;37.00;16.70;;;;;;;;;;20996557;28;20605;-69
2022/12/13 07:24:54;;;;;;;42.33;16.83;;;;;;;;;;21029416;28;20235;-69
2022/12/13 07:34:56;;;;;;;44.53;18.13;;;;;;;;;;21080021;28;20573;-69
2022/12/13 07:44:58;;;;;;;42.83;18.67;;;;;;;;;;21080057;28;20231;-69
2022/12/13 07:55:01;;;;;;;49.40;17.00;;;;;;;;;;21079229;28;20278;-69
2022/12/13 08:05:03;;;;;;;44.20;17.60;;;;;;;;;;21078289;28;20310;-69
2022/12/13 08:15:25;;;;;;;43.43;18.60;;;;;;;;;;21077537;28;20296;-69
2022/12/13 08:25:28;;;;;;;47.10;18.87;;;;;;;;;;21078116;28;20300;-69
2022/12/13 08:35:30;;;;;;;52.00;19.87;;;;;;;;;;21077243;28;20206;-69
2022/12/13 08:45:35;;;;;;;41.77;17.57;;;;;;;;;;21080714;28;20735;-69
2022/12/13 08:55:37;;;;;;;41.63;17.80;;;;;;;;;;21093479;28;20229;-69
2022/12/13 09:16:04;;;;;;;37.60;17.30;;;-2.70;88.70;;;;;;20982751;28;21036;-68
2022/12/13 09:26:15;;;;;;;36.97;18.23;;;;;;;;;;20983658;28;20258;-69
2022/12/13 09:36:19;;;;;;;37.07;18.37;;;-2.10;88.90;;;;;;20979710;28;20208;-69
2022/12/13 09:46:29;;;;;;;47.03;19.33;;;-1.80;88.80;;;;;;20979750;28;20236;-69
2022/12/13 09:56:49;;;;;;;42.83;20.00;;;;;;;;;;20980255;28;20258;-69
2022/12/13 10:06:53;;;;;;;40.80;19.80;;;-1.30;88.80;;;;;;20978322;28;20240;-70
2022/12/13 10:16:59;;;;;;;41.67;19.57;;;-1.00;88.50;;;;;;20977070;28;20214;-69
2022/12/13 10:27:16;;;;;;;45.37;19.23;;;-0.90;88.20;;;;;;20925254;28;20722;-69
2022/12/13 10:37:31;;;;;;;43.43;20.97;;;-0.70;88.30;;;;;;20922084;28;20213;-69
2022/12/13 10:47:35;;;;;;;42.73;19.97;;;-0.40;87.90;;;;;;20920891;28;20240;-69
2022/12/13 10:57:36;;;;;;;41.60;19.53;;;-0.40;87.30;;;;;;20920618;28;20241;-70
2022/12/13 11:07:38;;;;;;;35.70;18.20;;;-0.30;87.60;;;;;;20919454;28;20744;-69
2022/12/13 11:17:54;;;;;;;31.90;15.47;;;-0.10;87.60;;;;;;20918794;28;20209;-69
2022/12/13 11:28:11;;;;;;;28.90;15.90;;;0.20;87.60;;;;;;20918571;28;20246;-69
2022/12/13 11:38:33;;;;;;;33.97;17.20;;;0.20;88.20;;;;;;20916417;28;20208;-69
2022/12/13 11:48:50;;;;;;;29.57;15.83;;;0.90;87.30;;;;;;20916080;28;20233;-69
2022/12/13 11:59:08;;;;;;;28.70;12.97;;;1.30;87.10;;;;;;20915711;28;20215;-69
2022/12/13 12:09:26;;;;;;;23.20;11.03;;;1.40;87.20;;;;;;20912791;28;20710;-69
2022/12/13 12:19:39;;;;;;;19.67;10.20;;;1.60;84.90;;;;;;20913159;28;20301;-69
2022/12/13 12:29:52;;;;;;;31.90;15.50;;;1.80;84.50;;;;;;20911806;28;20234;-69
2022/12/13 12:40:19;;;;;;;21.10;11.67;;;1.80;83.50;;;;;;20912999;28;20211;-69
2022/12/13 12:50:39;;;;;;;22.77;11.10;;;1.70;82.60;;;;;;20911911;28;20266;-69
2022/12/13 13:01:12;;;;;;;25.60;11.50;;;1.70;82.30;;;;;;20911501;28;20211;-69
2022/12/13 13:11:15;;;;;;;21.70;11.37;;;1.50;81.80;;;;;;20909836;28;20231;-70
2022/12/13 13:21:32;;;;;;;22.63;11.33;;;1.40;81.70;;;;;;20909237;28;20237;-70
2022/12/13 13:32:09;;;;;;;27.63;13.10;;;1.40;81.70;;;;;;20909035;28;20566;-70
2022/12/13 13:42:18;;;;;;;19.77;10.40;;;1.40;81.70;;;;;;20909829;28;20601;-70
2022/12/13 13:52:22;;;;;;;17.77;9.93;;;1.30;81.40;;;;;;20909189;28;20629;-69
2022/12/13 14:02:32;;;;;;;17.47;10.17;;;1.00;81.40;;;;;;20924042;28;20215;-69
2022/12/13 14:13:09;;;;;;;21.37;10.37;;;1.20;81.70;;;;;;20924392;28;20364;-70
2022/12/13 14:23:19;;;;;;;20.00;10.33;;;1.00;81.80;;;;;;20923419;28;20211;-69
2022/12/13 14:33:24;;;;;;;18.73;10.77;;;3.20;84.40;;;;;;20922604;28;20309;-70
2022/12/13 14:43:32;;;;;;;22.93;11.30;;;0.80;82.20;;;;;;20921260;28;20204;-69
2022/12/13 14:53:38;;;;;;;17.50;9.93;;;0.80;82.60;;;;;;20920425;28;20474;-69
2022/12/13 15:03:40;;;;;;;20.33;9.87;;;;;;;;;;20920097;28;20272;-69
2022/12/13 15:13:45;;;;;;;20.90;10.90;;;0.50;83.40;;;;;;20919298;28;20596;-70
2022/12/13 15:23:48;;;;;;;25.43;10.57;;;0.30;83.40;;;;;;20918264;28;20268;-69
2022/12/13 15:33:50;;;;;;;16.53;10.13;;;0.30;83.70;;;;;;20917379;28;20238;-69
2022/12/13 15:43:55;;;;;;;26.63;14.53;;;0.00;83.70;;;;;;20916752;28;20203;-65
2022/12/13 15:54:17;;;;;;;26.10;13.87;;;-0.10;84.10;;;;;;20914952;28;20292;-67
2022/12/13 16:13:31;;;;;;;27.07;13.30;;;;;;;;;;20984317;28;20569;-66
2022/12/13 16:23:34;;;;;;;28.93;14.37;;;;;;;;;;20982402;28;20240;-68
2022/12/13 16:33:36;;;;;;;29.10;14.23;;;;;;;;;;20981582;28;20214;-71
2022/12/13 16:43:59;;;;;;;26.87;19.17;;;0.00;87.80;;;;;;20909851;28;20951;-65
2022/12/13 16:54:02;;;;;;;28.67;14.10;;;;;;;;;;20938706;28;20713;-70
2022/12/13 17:04:04;;;;;;;30.17;14.70;;;;;;;;;;20896458;28;20238;-65
2022/12/13 17:14:12;;;;;;;29.20;13.87;;;;;;;;;;20896657;28;20215;-69
2022/12/13 17:24:14;;;;;;;46.07;19.83;;;;;;;;;;20843862;28;20237;-64
2022/12/13 17:34:17;;;;;;;35.27;17.27;;;;;;;;;;20840427;28;20217;-67
2022/12/13 17:44:19;;;;;;;29.43;16.60;;;;;;;;;;20880297;28;20237;-70
2022/12/13 17:54:22;;;;;;;33.53;15.93;;;-0.90;89.30;;;;;;20921840;28;20208;-71
2022/12/13 18:04:24;;;;;;;31.57;15.30;;;;;;;;;;20919099;28;20234;-72
2022/12/13 18:14:26;;;;;;;35.93;17.27;;;;;;;;;;20920092;28;20201;-70
2022/12/13 18:24:28;;;;;;;29.33;16.07;;;;;;;;;;20919296;28;20233;-72
2022/12/13 18:34:30;;;;;;;35.90;18.27;;;;;;;;;;20917036;28;20212;-70
2022/12/13 18:44:33;;;;;;;34.67;17.23;;;;;;;;;;20917310;28;20236;-71
2022/12/13 18:54:35;;;;;;;35.60;18.67;;;;;;;;;;20915610;28;20215;-72
2022/12/13 19:04:37;;;;;;;38.17;18.33;;;;;;;;;;20913788;28;20245;-70
2022/12/13 19:14:39;;;;;;;37.03;19.37;;;;;;;;;;20915211;28;20558;-72
2022/12/13 19:24:41;;;;;;;39.33;18.03;;;;;;;;;;20914641;28;20236;-71
2022/12/13 19:34:43;;;;;;;33.40;16.73;;;;;;;;;;20912587;28;20216;-72
2022/12/13 19:44:46;;;;;;;28.70;16.30;;;;;;;;;;20911192;28;20240;-72
2022/12/13 19:54:48;;;;;;;31.77;16.00;;;;;;;;;;20911128;28;20565;-72
2022/12/13 20:04:51;;;;;;;35.43;17.27;;;;;;;;;;20910411;28;20300;-72
2022/12/13 20:14:53;;;;;;;30.07;16.17;;;;;;;;;;20908646;28;20581;-71
2022/12/13 20:24:55;;;;;;;31.20;15.13;;;;;;;;;;20907806;28;20244;-72
2022/12/13 20:34:57;;;;;;;26.67;14.00;;;;;;;;;;20908661;28;20205;-72
2022/12/13 20:44:59;;;;;;;28.80;14.97;;;;;;;;;;20908128;28;20647;-72
2022/12/13 20:55:01;;;;;;;25.23;13.93;;;;;;;;;;20915808;28;20202;-70
2022/12/13 21:05:03;;;;;;;30.87;15.07;;;;;;;;;;20922650;28;20245;-72
2022/12/13 21:15:06;;;;;;;26.63;14.10;;;;;;;;;;20922310;28;20210;-72
2022/12/13 21:25:08;;;;;;;33.20;14.30;;;;;;;;;;20921091;28;20607;-73
2022/12/13 21:37:35;;;;;;;28.13;13.83;;;;;;;;;;20982164;28;20558;-72
2022/12/13 21:47:37;;;;;;;25.77;13.13;;;;;;;;;;20981060;28;20222;-71
2022/12/13 22:08:08;;;;;;;17.97;9.53;;;;;;;;;;20979729;28;20228;-71
2022/12/13 22:18:10;;;;;;;18.47;9.53;;;;;;;;;;20978668;28;20664;-72
2022/12/13 22:28:12;;;;;;;17.10;9.30;;;;;;;;;;20977323;28;20242;-72
2022/12/13 22:38:15;;;;;;;18.57;9.53;;;;;;;;;;20977139;28;20213;-71
2022/12/13 22:48:17;;;;;;;14.57;8.33;;;;;;;;;;20925433;28;20266;-70
2022/12/13 22:58:20;;;;;;;13.67;7.63;;;;;;;;;;20921024;28;20213;-70
2022/12/13 23:08:22;;;;;;;17.93;8.73;;;;;;;;;;20922593;28;20231;-71
2022/12/13 23:18:24;;;;;;;20.70;8.60;;;;;;;;;;20921671;28;20666;-70
2022/12/13 23:28:27;;;;;;;14.57;8.10;;;;;;;;;;20920421;28;20293;-70
2022/12/13 23:38:30;;;;;;;16.37;7.93;;;;;;;;;;20920363;28;20207;-70
2022/12/13 23:48:33;;;;;;;16.17;7.53;;;;;;;;;;20919239;28;20241;-70
2022/12/13 23:58:39;;;;;;;12.47;7.20;;;0.00;85.00;;;;;;20917638;28;20202;-71
